sensor_id;sensor_type;location;lat;lon;timestamp;P1;durP1;ratioP1;P2;durP2;ratioP2
62687;SDS011;48752;51.056;17.056;2023-05-08T00:00:43;6.35;;;4.70;;
62687;SDS011;48752;51.056;17.056;2023-05-08T00:03:09;11.50;;;6.05;;
62687;SDS011;48752;51.056;17.056;2023-05-08T00:05:36;8.85;;;5.38;;
62687;SDS011;48752;51.056;17.056;2023-05-08T00:08:03;9.25;;;6.10;;
62687;SDS011;48752;51.056;17.056;2023-05-08T00:10:30;9.20;;;6.30;;
62687;SDS011;48752;51.056;17.056;2023-05-08T00:12:55;10.13;;;5.80;;
62687;SDS011;48752;51.056;17.056;2023-05-08T00:15:22;10.80;;;6.53;;
62687;SDS011;48752;51.056;17.056;2023-05-08T00:17:48;9.75;;;6.22;;
62687;SDS011;48752;51.056;17.056;2023-05-08T00:20:14;11.65;;;6.85;;
62687;SDS011;48752;51.056;17.056;2023-05-08T00:22:41;10.55;;;6.65;;
62687;SDS011;48752;51.056;17.056;2023-05-08T00:25:07;10.80;;;6.38;;
62687;SDS011;48752;51.056;17.056;2023-05-08T00:27:34;11.52;;;7.47;;
62687;SDS011;48752;51.056;17.056;2023-05-08T00:30:00;13.15;;;7.35;;
62687;SDS011;48752;51.056;17.056;2023-05-08T00:32:26;11.02;;;6.82;;
62687;SDS011;48752;51.056;17.056;2023-05-08T00:34:53;10.05;;;6.57;;
62687;SDS011;48752;51.056;17.056;2023-05-08T00:37:21;11.52;;;6.68;;
62687;SDS011;48752;51.056;17.056;2023-05-08T00:39:47;9.25;;;6.28;;
62687;SDS011;48752;51.056;17.056;2023-05-08T00:42:14;9.50;;;6.15;;
62687;SDS011;48752;51.056;17.056;2023-05-08T00:44:40;9.73;;;6.25;;
62687;SDS011;48752;51.056;17.056;2023-05-08T00:47:09;10.90;;;7.07;;
62687;SDS011;48752;51.056;17.056;2023-05-08T00:49:35;12.15;;;7.47;;
62687;SDS011;48752;51.056;17.056;2023-05-08T00:52:01;15.63;;;7.10;;
62687;SDS011;48752;51.056;17.056;2023-05-08T00:54:27;14.40;;;7.55;;
62687;SDS011;48752;51.056;17.056;2023-05-08T00:56:53;12.98;;;7.57;;
62687;SDS011;48752;51.056;17.056;2023-05-08T00:59:19;12.77;;;8.05;;
62687;SDS011;48752;51.056;17.056;2023-05-08T01:01:46;13.85;;;8.23;;
62687;SDS011;48752;51.056;17.056;2023-05-08T01:04:11;13.48;;;7.65;;
62687;SDS011;48752;51.056;17.056;2023-05-08T01:06:39;12.40;;;8.25;;
62687;SDS011;48752;51.056;17.056;2023-05-08T01:09:05;14.93;;;8.75;;
62687;SDS011;48752;51.056;17.056;2023-05-08T01:14:43;15.25;;;8.55;;
62687;SDS011;48752;51.056;17.056;2023-05-08T01:23:23;16.38;;;9.40;;
62687;SDS011;48752;51.056;17.056;2023-05-08T01:26:18;13.63;;;8.38;;
62687;SDS011;48752;51.056;17.056;2023-05-08T01:34:31;15.55;;;8.55;;
62687;SDS011;48752;51.056;17.056;2023-05-08T01:37:59;14.98;;;8.18;;
62687;SDS011;48752;51.056;17.056;2023-05-08T01:46:23;15.70;;;8.57;;
62687;SDS011;48752;51.056;17.056;2023-05-08T01:48:54;14.60;;;9.05;;
62687;SDS011;48752;51.056;17.056;2023-05-08T01:51:42;18.13;;;8.63;;
62687;SDS011;48752;51.056;17.056;2023-05-08T01:54:11;12.73;;;9.00;;
62687;SDS011;48752;51.056;17.056;2023-05-08T01:56:41;15.75;;;9.00;;
62687;SDS011;48752;51.056;17.056;2023-05-08T01:59:11;13.07;;;8.43;;
62687;SDS011;48752;51.056;17.056;2023-05-08T02:01:42;13.85;;;8.65;;
62687;SDS011;48752;51.056;17.056;2023-05-08T02:04:09;15.80;;;9.18;;
62687;SDS011;48752;51.056;17.056;2023-05-08T02:06:36;19.90;;;8.98;;
62687;SDS011;48752;51.056;17.056;2023-05-08T02:09:17;15.10;;;9.13;;
62687;SDS011;48752;51.056;17.056;2023-05-08T02:11:45;15.35;;;9.55;;
62687;SDS011;48752;51.056;17.056;2023-05-08T02:14:18;16.05;;;10.32;;
62687;SDS011;48752;51.056;17.056;2023-05-08T02:16:46;16.45;;;10.27;;
62687;SDS011;48752;51.056;17.056;2023-05-08T02:19:20;17.90;;;10.38;;
62687;SDS011;48752;51.056;17.056;2023-05-08T02:21:48;20.85;;;11.60;;
62687;SDS011;48752;51.056;17.056;2023-05-08T02:24:16;17.00;;;10.68;;
62687;SDS011;48752;51.056;17.056;2023-05-08T02:26:43;16.42;;;9.05;;
62687;SDS011;48752;51.056;17.056;2023-05-08T02:29:23;21.65;;;10.43;;
62687;SDS011;48752;51.056;17.056;2023-05-08T02:31:51;13.50;;;9.35;;
62687;SDS011;48752;51.056;17.056;2023-05-08T02:34:18;21.85;;;9.20;;
62687;SDS011;48752;51.056;17.056;2023-05-08T02:36:46;17.83;;;10.00;;
62687;SDS011;48752;51.056;17.056;2023-05-08T02:39:13;15.50;;;10.55;;
62687;SDS011;48752;51.056;17.056;2023-05-08T02:41:40;14.10;;;9.13;;
62687;SDS011;48752;51.056;17.056;2023-05-08T02:49:31;18.08;;;9.95;;
62687;SDS011;48752;51.056;17.056;2023-05-08T02:55:15;15.80;;;9.77;;
62687;SDS011;48752;51.056;17.056;2023-05-08T03:00:46;17.95;;;10.18;;
62687;SDS011;48752;51.056;17.056;2023-05-08T03:03:36;16.02;;;10.15;;
62687;SDS011;48752;51.056;17.056;2023-05-08T03:06:07;15.23;;;9.32;;
62687;SDS011;48752;51.056;17.056;2023-05-08T03:08:42;13.30;;;9.50;;
62687;SDS011;48752;51.056;17.056;2023-05-08T03:11:32;15.40;;;9.07;;
62687;SDS011;48752;51.056;17.056;2023-05-08T03:14:02;18.85;;;10.10;;
62687;SDS011;48752;51.056;17.056;2023-05-08T03:16:38;19.20;;;10.80;;
62687;SDS011;48752;51.056;17.056;2023-05-08T03:19:27;18.90;;;10.75;;
62687;SDS011;48752;51.056;17.056;2023-05-08T03:21:56;29.73;;;13.70;;
62687;SDS011;48752;51.056;17.056;2023-05-08T03:24:25;40.35;;;16.77;;
62687;SDS011;48752;51.056;17.056;2023-05-08T03:26:53;32.65;;;13.73;;
62687;SDS011;48752;51.056;17.056;2023-05-08T03:29:20;28.00;;;12.57;;
62687;SDS011;48752;51.056;17.056;2023-05-08T03:34:16;24.77;;;12.70;;
62687;SDS011;48752;51.056;17.056;2023-05-08T03:36:43;21.77;;;11.05;;
62687;SDS011;48752;51.056;17.056;2023-05-08T03:39:10;19.08;;;10.77;;
62687;SDS011;48752;51.056;17.056;2023-05-08T03:41:53;15.80;;;10.57;;
62687;SDS011;48752;51.056;17.056;2023-05-08T03:44:22;17.45;;;11.13;;
62687;SDS011;48752;51.056;17.056;2023-05-08T03:46:49;19.10;;;10.27;;
62687;SDS011;48752;51.056;17.056;2023-05-08T03:49:17;17.45;;;10.43;;
62687;SDS011;48752;51.056;17.056;2023-05-08T03:51:42;18.17;;;10.85;;
62687;SDS011;48752;51.056;17.056;2023-05-08T03:54:08;18.85;;;10.55;;
62687;SDS011;48752;51.056;17.056;2023-05-08T04:01:37;17.30;;;10.38;;
62687;SDS011;48752;51.056;17.056;2023-05-08T04:15:23;15.85;;;9.38;;
62687;SDS011;48752;51.056;17.056;2023-05-08T04:18:03;17.80;;;10.80;;
62687;SDS011;48752;51.056;17.056;2023-05-08T04:20:40;17.42;;;11.02;;
62687;SDS011;48752;51.056;17.056;2023-05-08T04:23:06;23.00;;;9.75;;
62687;SDS011;48752;51.056;17.056;2023-05-08T04:25:35;14.32;;;10.38;;
62687;SDS011;48752;51.056;17.056;2023-05-08T04:28:02;19.50;;;8.98;;
62687;SDS011;48752;51.056;17.056;2023-05-08T04:30:28;17.90;;;9.77;;
62687;SDS011;48752;51.056;17.056;2023-05-08T04:32:55;15.45;;;10.10;;
62687;SDS011;48752;51.056;17.056;2023-05-08T04:35:24;16.23;;;9.73;;
62687;SDS011;48752;51.056;17.056;2023-05-08T04:37:50;14.55;;;9.05;;
62687;SDS011;48752;51.056;17.056;2023-05-08T04:40:18;12.48;;;8.73;;
62687;SDS011;48752;51.056;17.056;2023-05-08T04:42:45;14.93;;;9.07;;
62687;SDS011;48752;51.056;17.056;2023-05-08T04:45:13;11.68;;;8.20;;
62687;SDS011;48752;51.056;17.056;2023-05-08T04:47:39;13.77;;;7.93;;
62687;SDS011;48752;51.056;17.056;2023-05-08T04:50:06;13.45;;;8.40;;
62687;SDS011;48752;51.056;17.056;2023-05-08T04:52:31;14.60;;;8.63;;
62687;SDS011;48752;51.056;17.056;2023-05-08T04:54:58;11.82;;;8.43;;
62687;SDS011;48752;51.056;17.056;2023-05-08T04:57:23;13.20;;;7.95;;
62687;SDS011;48752;51.056;17.056;2023-05-08T04:59:49;10.98;;;8.05;;
62687;SDS011;48752;51.056;17.056;2023-05-08T05:02:15;14.40;;;8.80;;
62687;SDS011;48752;51.056;17.056;2023-05-08T05:04:41;11.63;;;7.72;;
62687;SDS011;48752;51.056;17.056;2023-05-08T05:07:08;13.45;;;9.07;;
62687;SDS011;48752;51.056;17.056;2023-05-08T05:09:34;12.35;;;8.55;;
62687;SDS011;48752;51.056;17.056;2023-05-08T05:12:13;16.20;;;8.60;;
62687;SDS011;48752;51.056;17.056;2023-05-08T05:14:40;11.32;;;8.05;;
62687;SDS011;48752;51.056;17.056;2023-05-08T05:17:25;12.60;;;9.00;;
62687;SDS011;48752;51.056;17.056;2023-05-08T05:19:53;12.20;;;8.38;;
62687;SDS011;48752;51.056;17.056;2023-05-08T05:22:19;11.25;;;7.53;;
62687;SDS011;48752;51.056;17.056;2023-05-08T05:24:44;12.43;;;7.65;;
62687;SDS011;48752;51.056;17.056;2023-05-08T05:27:12;12.10;;;7.93;;
62687;SDS011;48752;51.056;17.056;2023-05-08T05:29:38;14.20;;;8.18;;
62687;SDS011;48752;51.056;17.056;2023-05-08T05:32:04;10.68;;;8.13;;
62687;SDS011;48752;51.056;17.056;2023-05-08T05:34:32;10.98;;;8.07;;
62687;SDS011;48752;51.056;17.056;2023-05-08T05:36:58;11.25;;;8.57;;
62687;SDS011;48752;51.056;17.056;2023-05-08T05:39:25;12.10;;;7.78;;
62687;SDS011;48752;51.056;17.056;2023-05-08T05:41:52;12.27;;;8.30;;
62687;SDS011;48752;51.056;17.056;2023-05-08T05:44:18;11.25;;;7.82;;
62687;SDS011;48752;51.056;17.056;2023-05-08T05:46:43;14.95;;;9.00;;
62687;SDS011;48752;51.056;17.056;2023-05-08T05:51:44;14.40;;;8.85;;
62687;SDS011;48752;51.056;17.056;2023-05-08T05:54:16;13.60;;;8.40;;
62687;SDS011;48752;51.056;17.056;2023-05-08T05:56:59;12.15;;;8.35;;
62687;SDS011;48752;51.056;17.056;2023-05-08T05:59:25;14.38;;;9.10;;
62687;SDS011;48752;51.056;17.056;2023-05-08T06:01:50;10.88;;;7.57;;
62687;SDS011;48752;51.056;17.056;2023-05-08T06:04:16;14.70;;;8.30;;
62687;SDS011;48752;51.056;17.056;2023-05-08T06:06:45;15.10;;;8.18;;
62687;SDS011;48752;51.056;17.056;2023-05-08T06:09:12;13.77;;;7.70;;
62687;SDS011;48752;51.056;17.056;2023-05-08T06:11:39;10.75;;;6.85;;
62687;SDS011;48752;51.056;17.056;2023-05-08T06:14:05;12.23;;;6.45;;
62687;SDS011;48752;51.056;17.056;2023-05-08T06:16:30;10.05;;;6.95;;
62687;SDS011;48752;51.056;17.056;2023-05-08T06:18:57;10.93;;;7.40;;
62687;SDS011;48752;51.056;17.056;2023-05-08T06:21:23;11.18;;;6.82;;
62687;SDS011;48752;51.056;17.056;2023-05-08T06:23:49;9.75;;;5.93;;
62687;SDS011;48752;51.056;17.056;2023-05-08T06:26:17;12.45;;;6.63;;
62687;SDS011;48752;51.056;17.056;2023-05-08T06:28:44;9.05;;;5.90;;
62687;SDS011;48752;51.056;17.056;2023-05-08T06:31:10;12.10;;;5.93;;
62687;SDS011;48752;51.056;17.056;2023-05-08T06:33:36;5.82;;;4.43;;
62687;SDS011;48752;51.056;17.056;2023-05-08T06:36:03;17.15;;;5.75;;
62687;SDS011;48752;51.056;17.056;2023-05-08T06:38:30;10.43;;;4.80;;
62687;SDS011;48752;51.056;17.056;2023-05-08T06:40:56;7.05;;;4.10;;
62687;SDS011;48752;51.056;17.056;2023-05-08T06:43:21;7.93;;;4.30;;
62687;SDS011;48752;51.056;17.056;2023-05-08T06:45:50;5.70;;;3.75;;
62687;SDS011;48752;51.056;17.056;2023-05-08T06:48:17;4.93;;;3.60;;
62687;SDS011;48752;51.056;17.056;2023-05-08T06:50:42;9.90;;;3.85;;
62687;SDS011;48752;51.056;17.056;2023-05-08T06:53:09;4.35;;;3.30;;
62687;SDS011;48752;51.056;17.056;2023-05-08T06:55:34;6.57;;;3.65;;
62687;SDS011;48752;51.056;17.056;2023-05-08T06:58:00;4.53;;;2.88;;
62687;SDS011;48752;51.056;17.056;2023-05-08T07:00:25;3.90;;;3.00;;
62687;SDS011;48752;51.056;17.056;2023-05-08T07:02:51;4.55;;;3.78;;
62687;SDS011;48752;51.056;17.056;2023-05-08T07:05:17;6.75;;;3.33;;
62687;SDS011;48752;51.056;17.056;2023-05-08T07:07:45;4.22;;;3.53;;
62687;SDS011;48752;51.056;17.056;2023-05-08T07:10:10;6.68;;;3.92;;
62687;SDS011;48752;51.056;17.056;2023-05-08T07:12:36;4.22;;;3.78;;
62687;SDS011;48752;51.056;17.056;2023-05-08T07:15:02;4.32;;;3.58;;
62687;SDS011;48752;51.056;17.056;2023-05-08T07:17:28;7.22;;;3.42;;
62687;SDS011;48752;51.056;17.056;2023-05-08T07:19:54;4.50;;;3.17;;
62687;SDS011;48752;51.056;17.056;2023-05-08T07:22:21;3.47;;;3.10;;
62687;SDS011;48752;51.056;17.056;2023-05-08T07:24:48;3.28;;;2.80;;
62687;SDS011;48752;51.056;17.056;2023-05-08T07:27:15;6.90;;;3.50;;
62687;SDS011;48752;51.056;17.056;2023-05-08T07:29:42;5.40;;;3.05;;
62687;SDS011;48752;51.056;17.056;2023-05-08T07:32:07;6.82;;;3.58;;
62687;SDS011;48752;51.056;17.056;2023-05-08T07:34:36;3.90;;;2.85;;
62687;SDS011;48752;51.056;17.056;2023-05-08T07:37:01;5.22;;;2.65;;
62687;SDS011;48752;51.056;17.056;2023-05-08T07:39:27;5.68;;;3.10;;
62687;SDS011;48752;51.056;17.056;2023-05-08T07:41:53;3.45;;;3.13;;
62687;SDS011;48752;51.056;17.056;2023-05-08T07:44:19;3.30;;;2.88;;
62687;SDS011;48752;51.056;17.056;2023-05-08T07:46:44;7.75;;;3.47;;
62687;SDS011;48752;51.056;17.056;2023-05-08T07:49:10;5.47;;;2.47;;
62687;SDS011;48752;51.056;17.056;2023-05-08T07:51:37;4.75;;;3.00;;
62687;SDS011;48752;51.056;17.056;2023-05-08T07:54:04;6.85;;;2.50;;
62687;SDS011;48752;51.056;17.056;2023-05-08T07:56:30;3.47;;;2.83;;
62687;SDS011;48752;51.056;17.056;2023-05-08T07:58:56;4.97;;;3.58;;
62687;SDS011;48752;51.056;17.056;2023-05-08T08:01:22;6.65;;;2.80;;
62687;SDS011;48752;51.056;17.056;2023-05-08T08:03:47;5.40;;;2.83;;
62687;SDS011;48752;51.056;17.056;2023-05-08T08:06:14;2.55;;;2.30;;
62687;SDS011;48752;51.056;17.056;2023-05-08T08:08:42;3.28;;;2.88;;
62687;SDS011;48752;51.056;17.056;2023-05-08T08:11:09;3.75;;;3.20;;
62687;SDS011;48752;51.056;17.056;2023-05-08T08:13:34;3.22;;;2.63;;
62687;SDS011;48752;51.056;17.056;2023-05-08T08:15:59;5.13;;;2.80;;
62687;SDS011;48752;51.056;17.056;2023-05-08T08:18:26;5.22;;;3.40;;
62687;SDS011;48752;51.056;17.056;2023-05-08T08:20:53;6.35;;;2.95;;
62687;SDS011;48752;51.056;17.056;2023-05-08T08:23:19;2.90;;;2.60;;
62687;SDS011;48752;51.056;17.056;2023-05-08T08:25:52;3.97;;;2.60;;
62687;SDS011;48752;51.056;17.056;2023-05-08T08:28:20;3.42;;;3.10;;
62687;SDS011;48752;51.056;17.056;2023-05-08T08:30:48;3.90;;;2.83;;
62687;SDS011;48752;51.056;17.056;2023-05-08T08:33:14;4.18;;;3.47;;
62687;SDS011;48752;51.056;17.056;2023-05-08T08:35:39;4.75;;;3.30;;
62687;SDS011;48752;51.056;17.056;2023-05-08T08:38:05;5.97;;;3.03;;
62687;SDS011;48752;51.056;17.056;2023-05-08T08:40:37;7.28;;;3.58;;
62687;SDS011;48752;51.056;17.056;2023-05-08T08:43:06;5.90;;;3.45;;
62687;SDS011;48752;51.056;17.056;2023-05-08T08:45:32;3.38;;;3.08;;
62687;SDS011;48752;51.056;17.056;2023-05-08T08:48:00;3.90;;;3.50;;
62687;SDS011;48752;51.056;17.056;2023-05-08T08:50:28;5.03;;;3.85;;
62687;SDS011;48752;51.056;17.056;2023-05-08T08:53:00;4.15;;;3.45;;
62687;SDS011;48752;51.056;17.056;2023-05-08T08:55:31;4.75;;;3.03;;
62687;SDS011;48752;51.056;17.056;2023-05-08T08:58:20;6.15;;;3.47;;
62687;SDS011;48752;51.056;17.056;2023-05-08T09:01:00;5.00;;;3.45;;
62687;SDS011;48752;51.056;17.056;2023-05-08T09:03:33;5.57;;;3.78;;
62687;SDS011;48752;51.056;17.056;2023-05-08T09:06:00;6.22;;;3.75;;
62687;SDS011;48752;51.056;17.056;2023-05-08T09:08:26;24.98;;;6.15;;
62687;SDS011;48752;51.056;17.056;2023-05-08T09:11:13;6.43;;;3.70;;
62687;SDS011;48752;51.056;17.056;2023-05-08T09:13:39;5.03;;;3.25;;
62687;SDS011;48752;51.056;17.056;2023-05-08T09:16:06;5.68;;;3.60;;
62687;SDS011;48752;51.056;17.056;2023-05-08T09:18:32;4.68;;;3.40;;
62687;SDS011;48752;51.056;17.056;2023-05-08T09:20:58;5.25;;;4.03;;
62687;SDS011;48752;51.056;17.056;2023-05-08T09:23:31;4.55;;;3.30;;
62687;SDS011;48752;51.056;17.056;2023-05-08T09:25:57;6.57;;;3.88;;
62687;SDS011;48752;51.056;17.056;2023-05-08T09:28:23;6.50;;;4.60;;
62687;SDS011;48752;51.056;17.056;2023-05-08T09:30:54;4.95;;;4.38;;
62687;SDS011;48752;51.056;17.056;2023-05-08T09:33:23;6.20;;;4.15;;
62687;SDS011;48752;51.056;17.056;2023-05-08T09:35:51;8.45;;;4.88;;
62687;SDS011;48752;51.056;17.056;2023-05-08T09:41:14;10.07;;;4.55;;
62687;SDS011;48752;51.056;17.056;2023-05-08T09:43:41;5.65;;;4.22;;
62687;SDS011;48752;51.056;17.056;2023-05-08T09:46:21;7.07;;;4.13;;
62687;SDS011;48752;51.056;17.056;2023-05-08T09:48:48;5.65;;;4.30;;
62687;SDS011;48752;51.056;17.056;2023-05-08T09:51:15;18.98;;;5.30;;
62687;SDS011;48752;51.056;17.056;2023-05-08T09:53:42;9.18;;;4.28;;
62687;SDS011;48752;51.056;17.056;2023-05-08T09:56:08;4.63;;;3.58;;
62687;SDS011;48752;51.056;17.056;2023-05-08T09:58:40;4.32;;;3.83;;
62687;SDS011;48752;51.056;17.056;2023-05-08T10:01:07;4.35;;;3.85;;
62687;SDS011;48752;51.056;17.056;2023-05-08T10:03:52;5.43;;;4.30;;
62687;SDS011;48752;51.056;17.056;2023-05-08T10:06:18;5.05;;;4.25;;
62687;SDS011;48752;51.056;17.056;2023-05-08T10:08:50;4.68;;;4.22;;
62687;SDS011;48752;51.056;17.056;2023-05-08T10:11:38;7.88;;;4.20;;
62687;SDS011;48752;51.056;17.056;2023-05-08T10:14:20;6.15;;;4.70;;
62687;SDS011;48752;51.056;17.056;2023-05-08T10:16:47;5.03;;;3.95;;
62687;SDS011;48752;51.056;17.056;2023-05-08T10:19:14;6.45;;;4.68;;
62687;SDS011;48752;51.056;17.056;2023-05-08T10:21:42;6.10;;;4.22;;
62687;SDS011;48752;51.056;17.056;2023-05-08T10:24:34;6.22;;;4.38;;
62687;SDS011;48752;51.056;17.056;2023-05-08T10:27:18;7.72;;;4.15;;
62687;SDS011;48752;51.056;17.056;2023-05-08T10:29:53;10.65;;;4.38;;
62687;SDS011;48752;51.056;17.056;2023-05-08T10:32:20;8.50;;;4.07;;
62687;SDS011;48752;51.056;17.056;2023-05-08T10:34:55;7.15;;;4.07;;
62687;SDS011;48752;51.056;17.056;2023-05-08T10:37:23;5.25;;;3.88;;
62687;SDS011;48752;51.056;17.056;2023-05-08T10:39:52;5.38;;;4.32;;
62687;SDS011;48752;51.056;17.056;2023-05-08T10:42:18;7.30;;;4.43;;
62687;SDS011;48752;51.056;17.056;2023-05-08T10:44:44;7.38;;;4.35;;
62687;SDS011;48752;51.056;17.056;2023-05-08T10:50:03;6.45;;;4.07;;
62687;SDS011;48752;51.056;17.056;2023-05-08T10:55:30;6.50;;;3.90;;
62687;SDS011;48752;51.056;17.056;2023-05-08T10:58:05;5.40;;;3.90;;
62687;SDS011;48752;51.056;17.056;2023-05-08T11:03:31;6.05;;;4.50;;
62687;SDS011;48752;51.056;17.056;2023-05-08T11:05:57;5.10;;;4.28;;
62687;SDS011;48752;51.056;17.056;2023-05-08T11:08:28;7.40;;;5.07;;
62687;SDS011;48752;51.056;17.056;2023-05-08T11:13:45;7.55;;;4.65;;
62687;SDS011;48752;51.056;17.056;2023-05-08T11:16:14;5.07;;;3.90;;
62687;SDS011;48752;51.056;17.056;2023-05-08T11:24:37;8.07;;;4.78;;
62687;SDS011;48752;51.056;17.056;2023-05-08T11:38:37;4.88;;;3.22;;
62687;SDS011;48752;51.056;17.056;2023-05-08T11:41:21;5.32;;;3.10;;
62687;SDS011;48752;51.056;17.056;2023-05-08T11:46:53;4.85;;;3.00;;
62687;SDS011;48752;51.056;17.056;2023-05-08T11:49:22;4.90;;;3.30;;
62687;SDS011;48752;51.056;17.056;2023-05-08T11:51:56;10.52;;;3.45;;
62687;SDS011;48752;51.056;17.056;2023-05-08T11:54:24;5.32;;;2.78;;
62687;SDS011;48752;51.056;17.056;2023-05-08T11:56:58;7.60;;;3.15;;
62687;SDS011;48752;51.056;17.056;2023-05-08T11:59:24;8.38;;;3.00;;
62687;SDS011;48752;51.056;17.056;2023-05-08T12:01:50;4.18;;;3.00;;
62687;SDS011;48752;51.056;17.056;2023-05-08T12:04:16;4.68;;;2.80;;
62687;SDS011;48752;51.056;17.056;2023-05-08T12:06:42;3.05;;;2.75;;
62687;SDS011;48752;51.056;17.056;2023-05-08T12:09:15;3.75;;;3.22;;
62687;SDS011;48752;51.056;17.056;2023-05-08T12:11:43;7.55;;;3.08;;
62687;SDS011;48752;51.056;17.056;2023-05-08T12:14:16;3.30;;;3.00;;
62687;SDS011;48752;51.056;17.056;2023-05-08T12:16:43;7.85;;;3.60;;
62687;SDS011;48752;51.056;17.056;2023-05-08T12:19:10;4.90;;;3.47;;
62687;SDS011;48752;51.056;17.056;2023-05-08T12:21:37;5.43;;;3.83;;
62687;SDS011;48752;51.056;17.056;2023-05-08T12:24:08;4.93;;;2.60;;
62687;SDS011;48752;51.056;17.056;2023-05-08T12:26:36;3.55;;;2.45;;
62687;SDS011;48752;51.056;17.056;2023-05-08T12:29:06;4.75;;;2.80;;
62687;SDS011;48752;51.056;17.056;2023-05-08T12:31:35;4.28;;;3.08;;
62687;SDS011;48752;51.056;17.056;2023-05-08T12:34:02;4.63;;;2.45;;
62687;SDS011;48752;51.056;17.056;2023-05-08T12:36:36;4.72;;;2.30;;
62687;SDS011;48752;51.056;17.056;2023-05-08T12:39:10;3.95;;;2.50;;
62687;SDS011;48752;51.056;17.056;2023-05-08T12:41:51;5.93;;;3.40;;
62687;SDS011;48752;51.056;17.056;2023-05-08T12:44:26;4.97;;;2.75;;
62687;SDS011;48752;51.056;17.056;2023-05-08T12:46:55;4.65;;;2.75;;
62687;SDS011;48752;51.056;17.056;2023-05-08T12:52:04;8.18;;;3.05;;
62687;SDS011;48752;51.056;17.056;2023-05-08T12:54:38;9.85;;;3.30;;
62687;SDS011;48752;51.056;17.056;2023-05-08T12:59:43;3.92;;;2.70;;
62687;SDS011;48752;51.056;17.056;2023-05-08T13:02:21;4.55;;;3.00;;
62687;SDS011;48752;51.056;17.056;2023-05-08T13:04:52;8.23;;;3.35;;
62687;SDS011;48752;51.056;17.056;2023-05-08T13:07:18;5.05;;;2.70;;
62687;SDS011;48752;51.056;17.056;2023-05-08T13:09:56;4.60;;;3.08;;
62687;SDS011;48752;51.056;17.056;2023-05-08T13:12:24;4.57;;;2.90;;
62687;SDS011;48752;51.056;17.056;2023-05-08T13:14:50;6.07;;;3.35;;
62687;SDS011;48752;51.056;17.056;2023-05-08T13:17:16;5.30;;;3.05;;
62687;SDS011;48752;51.056;17.056;2023-05-08T13:19:42;3.75;;;2.92;;
62687;SDS011;48752;51.056;17.056;2023-05-08T13:22:08;4.32;;;2.58;;
62687;SDS011;48752;51.056;17.056;2023-05-08T13:24:34;3.55;;;3.00;;
62687;SDS011;48752;51.056;17.056;2023-05-08T13:27:01;4.63;;;2.90;;
62687;SDS011;48752;51.056;17.056;2023-05-08T13:29:33;7.10;;;2.97;;
62687;SDS011;48752;51.056;17.056;2023-05-08T13:32:00;4.97;;;2.65;;
62687;SDS011;48752;51.056;17.056;2023-05-08T13:34:25;6.85;;;2.78;;
62687;SDS011;48752;51.056;17.056;2023-05-08T13:36:51;4.22;;;2.60;;
62687;SDS011;48752;51.056;17.056;2023-05-08T13:39:16;5.25;;;2.72;;
62687;SDS011;48752;51.056;17.056;2023-05-08T13:41:41;4.55;;;3.35;;
62687;SDS011;48752;51.056;17.056;2023-05-08T13:44:08;3.03;;;2.42;;
62687;SDS011;48752;51.056;17.056;2023-05-08T13:46:33;2.78;;;2.35;;
62687;SDS011;48752;51.056;17.056;2023-05-08T13:49:00;3.80;;;2.80;;
62687;SDS011;48752;51.056;17.056;2023-05-08T13:51:30;5.88;;;2.88;;
62687;SDS011;48752;51.056;17.056;2023-05-08T13:53:56;3.70;;;2.78;;
62687;SDS011;48752;51.056;17.056;2023-05-08T13:56:23;3.90;;;2.60;;
62687;SDS011;48752;51.056;17.056;2023-05-08T13:58:48;3.53;;;2.50;;
62687;SDS011;48752;51.056;17.056;2023-05-08T14:01:15;5.35;;;2.95;;
62687;SDS011;48752;51.056;17.056;2023-05-08T14:03:54;2.55;;;2.28;;
62687;SDS011;48752;51.056;17.056;2023-05-08T14:06:20;3.70;;;2.20;;
62687;SDS011;48752;51.056;17.056;2023-05-08T14:08:46;6.78;;;2.85;;
62687;SDS011;48752;51.056;17.056;2023-05-08T14:11:13;3.53;;;2.28;;
62687;SDS011;48752;51.056;17.056;2023-05-08T14:13:38;3.92;;;2.55;;
62687;SDS011;48752;51.056;17.056;2023-05-08T14:16:03;4.90;;;2.55;;
62687;SDS011;48752;51.056;17.056;2023-05-08T14:18:32;4.93;;;2.63;;
62687;SDS011;48752;51.056;17.056;2023-05-08T14:20:57;5.07;;;3.10;;
62687;SDS011;48752;51.056;17.056;2023-05-08T14:23:23;3.92;;;2.45;;
62687;SDS011;48752;51.056;17.056;2023-05-08T14:25:49;5.55;;;2.60;;
62687;SDS011;48752;51.056;17.056;2023-05-08T14:28:16;3.72;;;2.80;;
62687;SDS011;48752;51.056;17.056;2023-05-08T14:30:41;5.93;;;2.58;;
62687;SDS011;48752;51.056;17.056;2023-05-08T14:33:07;4.93;;;3.17;;
62687;SDS011;48752;51.056;17.056;2023-05-08T14:35:34;6.30;;;3.03;;
62687;SDS011;48752;51.056;17.056;2023-05-08T14:37:59;5.10;;;2.40;;
62687;SDS011;48752;51.056;17.056;2023-05-08T14:40:25;3.55;;;2.50;;
62687;SDS011;48752;51.056;17.056;2023-05-08T14:42:51;4.40;;;3.20;;
62687;SDS011;48752;51.056;17.056;2023-05-08T14:45:17;3.53;;;2.55;;
62687;SDS011;48752;51.056;17.056;2023-05-08T14:47:45;7.75;;;2.67;;
62687;SDS011;48752;51.056;17.056;2023-05-08T14:50:12;6.22;;;2.58;;
62687;SDS011;48752;51.056;17.056;2023-05-08T14:52:37;4.97;;;2.33;;
62687;SDS011;48752;51.056;17.056;2023-05-08T14:55:03;2.88;;;2.30;;
62687;SDS011;48752;51.056;17.056;2023-05-08T14:57:29;4.57;;;2.72;;
62687;SDS011;48752;51.056;17.056;2023-05-08T14:59:55;4.72;;;2.67;;
62687;SDS011;48752;51.056;17.056;2023-05-08T15:02:21;5.28;;;2.40;;
62687;SDS011;48752;51.056;17.056;2023-05-08T15:04:47;3.03;;;2.55;;
62687;SDS011;48752;51.056;17.056;2023-05-08T15:07:14;8.48;;;2.85;;
62687;SDS011;48752;51.056;17.056;2023-05-08T15:09:40;6.05;;;2.55;;
62687;SDS011;48752;51.056;17.056;2023-05-08T15:12:06;4.10;;;2.25;;
62687;SDS011;48752;51.056;17.056;2023-05-08T15:14:39;5.57;;;2.92;;
62687;SDS011;48752;51.056;17.056;2023-05-08T15:17:27;5.85;;;3.60;;
62687;SDS011;48752;51.056;17.056;2023-05-08T15:19:54;5.05;;;2.75;;
62687;SDS011;48752;51.056;17.056;2023-05-08T15:22:20;4.53;;;2.50;;
62687;SDS011;48752;51.056;17.056;2023-05-08T15:24:47;6.25;;;2.47;;
62687;SDS011;48752;51.056;17.056;2023-05-08T15:27:12;3.65;;;2.00;;
62687;SDS011;48752;51.056;17.056;2023-05-08T15:29:38;3.38;;;2.47;;
62687;SDS011;48752;51.056;17.056;2023-05-08T15:32:04;2.35;;;2.13;;
62687;SDS011;48752;51.056;17.056;2023-05-08T15:34:31;4.28;;;2.17;;
62687;SDS011;48752;51.056;17.056;2023-05-08T15:39:46;3.72;;;2.10;;
62687;SDS011;48752;51.056;17.056;2023-05-08T15:42:14;4.93;;;2.50;;
62687;SDS011;48752;51.056;17.056;2023-05-08T15:44:40;5.30;;;2.60;;
62687;SDS011;48752;51.056;17.056;2023-05-08T15:47:07;5.28;;;2.47;;
62687;SDS011;48752;51.056;17.056;2023-05-08T15:49:32;5.25;;;2.25;;
62687;SDS011;48752;51.056;17.056;2023-05-08T15:51:57;2.92;;;2.00;;
62687;SDS011;48752;51.056;17.056;2023-05-08T15:54:24;3.92;;;2.38;;
62687;SDS011;48752;51.056;17.056;2023-05-08T15:56:52;7.53;;;2.45;;
62687;SDS011;48752;51.056;17.056;2023-05-08T15:59:18;5.63;;;2.60;;
62687;SDS011;48752;51.056;17.056;2023-05-08T16:01:45;6.65;;;2.38;;
62687;SDS011;48752;51.056;17.056;2023-05-08T16:04:12;4.13;;;2.75;;
62687;SDS011;48752;51.056;17.056;2023-05-08T16:06:37;4.50;;;2.28;;
62687;SDS011;48752;51.056;17.056;2023-05-08T16:09:03;4.00;;;2.53;;
62687;SDS011;48752;51.056;17.056;2023-05-08T16:11:29;4.57;;;2.20;;
62687;SDS011;48752;51.056;17.056;2023-05-08T16:13:56;5.57;;;2.33;;